sensor_id;sensor_type;location;lat;lon;timestamp;P1;durP1;ratioP1;P2;durP2;ratioP2
29314;SDS011;16320;53.954;9.506;2023-01-23T00:02:08;10.30;;;4.70;;
29314;SDS011;16320;53.954;9.506;2023-01-23T00:05:12;9.50;;;5.30;;
29314;SDS011;16320;53.954;9.506;2023-01-23T00:08:17;8.85;;;4.75;;
29314;SDS011;16320;53.954;9.506;2023-01-23T00:11:27;8.43;;;4.78;;
29314;SDS011;16320;53.954;9.506;2023-01-23T00:14:35;12.73;;;5.63;;
29314;SDS011;16320;53.954;9.506;2023-01-23T00:17:39;13.65;;;5.38;;
29314;SDS011;16320;53.954;9.506;2023-01-23T00:20:44;13.50;;;5.50;;
29314;SDS011;16320;53.954;9.506;2023-01-23T00:23:52;12.05;;;5.95;;
29314;SDS011;16320;53.954;9.506;2023-01-23T00:27:00;10.35;;;4.65;;
29314;SDS011;16320;53.954;9.506;2023-01-23T00:30:05;11.55;;;5.88;;
29314;SDS011;16320;53.954;9.506;2023-01-23T00:33:10;10.00;;;5.38;;
29314;SDS011;16320;53.954;9.506;2023-01-23T00:36:14;10.65;;;5.60;;
29314;SDS011;16320;53.954;9.506;2023-01-23T00:39:20;7.72;;;4.82;;
29314;SDS011;16320;53.954;9.506;2023-01-23T00:42:25;15.27;;;5.95;;
29314;SDS011;16320;53.954;9.506;2023-01-23T00:45:30;11.82;;;5.65;;
29314;SDS011;16320;53.954;9.506;2023-01-23T00:48:34;11.63;;;6.30;;
29314;SDS011;16320;53.954;9.506;2023-01-23T00:51:39;12.75;;;6.05;;
29314;SDS011;16320;53.954;9.506;2023-01-23T00:54:43;14.85;;;6.78;;
29314;SDS011;16320;53.954;9.506;2023-01-23T00:57:47;10.45;;;6.43;;
29314;SDS011;16320;53.954;9.506;2023-01-23T01:00:52;16.92;;;6.88;;
29314;SDS011;16320;53.954;9.506;2023-01-23T01:03:57;12.80;;;6.43;;
29314;SDS011;16320;53.954;9.506;2023-01-23T01:07:03;19.85;;;6.68;;
29314;SDS011;16320;53.954;9.506;2023-01-23T01:10:08;12.00;;;6.93;;
29314;SDS011;16320;53.954;9.506;2023-01-23T01:13:13;14.43;;;6.82;;
29314;SDS011;16320;53.954;9.506;2023-01-23T01:16:22;11.73;;;7.05;;
29314;SDS011;16320;53.954;9.506;2023-01-23T01:19:27;11.82;;;6.43;;
29314;SDS011;16320;53.954;9.506;2023-01-23T01:22:32;15.07;;;7.47;;
29314;SDS011;16320;53.954;9.506;2023-01-23T01:25:37;10.77;;;6.13;;
29314;SDS011;16320;53.954;9.506;2023-01-23T01:28:42;8.38;;;5.88;;
29314;SDS011;16320;53.954;9.506;2023-01-23T01:31:47;13.20;;;6.18;;
29314;SDS011;16320;53.954;9.506;2023-01-23T01:34:51;10.68;;;5.95;;
29314;SDS011;16320;53.954;9.506;2023-01-23T01:37:56;12.48;;;5.82;;
29314;SDS011;16320;53.954;9.506;2023-01-23T01:41:01;13.73;;;6.45;;
29314;SDS011;16320;53.954;9.506;2023-01-23T01:44:09;11.88;;;6.55;;
29314;SDS011;16320;53.954;9.506;2023-01-23T01:47:25;15.30;;;7.40;;
29314;SDS011;16320;53.954;9.506;2023-01-23T01:50:30;14.70;;;6.10;;
29314;SDS011;16320;53.954;9.506;2023-01-23T01:53:35;10.32;;;6.68;;
29314;SDS011;16320;53.954;9.506;2023-01-23T01:56:43;12.80;;;6.05;;
29314;SDS011;16320;53.954;9.506;2023-01-23T01:59:59;9.90;;;6.10;;
29314;SDS011;16320;53.954;9.506;2023-01-23T02:03:18;15.23;;;6.10;;
29314;SDS011;16320;53.954;9.506;2023-01-23T02:06:23;11.05;;;6.07;;
29314;SDS011;16320;53.954;9.506;2023-01-23T02:09:28;8.63;;;5.65;;
29314;SDS011;16320;53.954;9.506;2023-01-23T02:12:36;14.93;;;6.65;;
29314;SDS011;16320;53.954;9.506;2023-01-23T02:15:41;16.95;;;6.57;;
29314;SDS011;16320;53.954;9.506;2023-01-23T02:18:47;12.70;;;6.70;;
29314;SDS011;16320;53.954;9.506;2023-01-23T02:21:59;14.02;;;6.63;;
29314;SDS011;16320;53.954;9.506;2023-01-23T02:25:26;10.73;;;6.35;;
29314;SDS011;16320;53.954;9.506;2023-01-23T02:28:49;12.68;;;6.50;;
29314;SDS011;16320;53.954;9.506;2023-01-23T02:31:55;15.02;;;7.05;;
29314;SDS011;16320;53.954;9.506;2023-01-23T02:35:00;15.45;;;6.82;;
29314;SDS011;16320;53.954;9.506;2023-01-23T02:38:14;10.65;;;6.43;;
29314;SDS011;16320;53.954;9.506;2023-01-23T02:41:27;15.25;;;7.00;;
29314;SDS011;16320;53.954;9.506;2023-01-23T02:44:34;16.70;;;8.05;;
29314;SDS011;16320;53.954;9.506;2023-01-23T02:47:39;19.98;;;7.32;;
29314;SDS011;16320;53.954;9.506;2023-01-23T02:50:43;19.30;;;8.05;;
29314;SDS011;16320;53.954;9.506;2023-01-23T02:53:49;16.00;;;7.80;;
29314;SDS011;16320;53.954;9.506;2023-01-23T02:56:54;14.10;;;7.22;;
29314;SDS011;16320;53.954;9.506;2023-01-23T03:00:00;17.50;;;8.10;;
29314;SDS011;16320;53.954;9.506;2023-01-23T03:03:19;14.50;;;7.97;;
29314;SDS011;16320;53.954;9.506;2023-01-23T03:06:23;11.88;;;7.25;;
29314;SDS011;16320;53.954;9.506;2023-01-23T03:09:27;21.42;;;8.40;;
29314;SDS011;16320;53.954;9.506;2023-01-23T03:12:32;18.42;;;7.85;;
29314;SDS011;16320;53.954;9.506;2023-01-23T03:15:36;13.10;;;7.82;;
29314;SDS011;16320;53.954;9.506;2023-01-23T03:18:41;13.90;;;7.55;;
29314;SDS011;16320;53.954;9.506;2023-01-23T03:21:57;14.98;;;7.78;;
29314;SDS011;16320;53.954;9.506;2023-01-23T03:25:01;20.33;;;8.00;;
29314;SDS011;16320;53.954;9.506;2023-01-23T03:28:06;25.13;;;7.93;;
29314;SDS011;16320;53.954;9.506;2023-01-23T03:31:30;15.77;;;8.77;;
29314;SDS011;16320;53.954;9.506;2023-01-23T03:34:35;19.00;;;8.30;;
29314;SDS011;16320;53.954;9.506;2023-01-23T03:37:40;18.58;;;8.60;;
29314;SDS011;16320;53.954;9.506;2023-01-23T03:40:48;29.33;;;8.10;;
29314;SDS011;16320;53.954;9.506;2023-01-23T03:44:11;13.85;;;8.10;;
29314;SDS011;16320;53.954;9.506;2023-01-23T03:47:16;26.52;;;8.82;;
29314;SDS011;16320;53.954;9.506;2023-01-23T03:50:20;16.88;;;7.90;;
29314;SDS011;16320;53.954;9.506;2023-01-23T03:53:25;18.27;;;8.20;;
29314;SDS011;16320;53.954;9.506;2023-01-23T03:56:30;13.02;;;7.53;;
29314;SDS011;16320;53.954;9.506;2023-01-23T03:59:34;14.10;;;7.70;;
29314;SDS011;16320;53.954;9.506;2023-01-23T04:02:39;15.35;;;7.47;;
29314;SDS011;16320;53.954;9.506;2023-01-23T04:05:44;15.27;;;6.53;;
29314;SDS011;16320;53.954;9.506;2023-01-23T04:08:48;14.27;;;7.70;;
29314;SDS011;16320;53.954;9.506;2023-01-23T04:11:53;17.00;;;7.88;;
29314;SDS011;16320;53.954;9.506;2023-01-23T04:14:58;19.50;;;8.57;;
29314;SDS011;16320;53.954;9.506;2023-01-23T04:18:03;20.83;;;7.95;;
29314;SDS011;16320;53.954;9.506;2023-01-23T04:21:07;17.15;;;8.43;;
29314;SDS011;16320;53.954;9.506;2023-01-23T04:24:12;14.77;;;7.85;;
29314;SDS011;16320;53.954;9.506;2023-01-23T04:27:17;14.07;;;7.43;;
29314;SDS011;16320;53.954;9.506;2023-01-23T04:30:21;15.63;;;7.55;;
29314;SDS011;16320;53.954;9.506;2023-01-23T04:33:26;17.50;;;7.72;;
29314;SDS011;16320;53.954;9.506;2023-01-23T04:36:30;18.00;;;8.05;;
29314;SDS011;16320;53.954;9.506;2023-01-23T04:39:35;19.23;;;7.68;;
29314;SDS011;16320;53.954;9.506;2023-01-23T04:42:40;13.60;;;7.35;;
29314;SDS011;16320;53.954;9.506;2023-01-23T04:45:44;13.13;;;7.70;;
29314;SDS011;16320;53.954;9.506;2023-01-23T04:48:49;14.93;;;7.68;;
29314;SDS011;16320;53.954;9.506;2023-01-23T04:51:53;16.73;;;8.02;;
29314;SDS011;16320;53.954;9.506;2023-01-23T04:54:58;18.95;;;8.18;;
29314;SDS011;16320;53.954;9.506;2023-01-23T04:58:02;15.02;;;8.25;;
29314;SDS011;16320;53.954;9.506;2023-01-23T05:01:06;14.82;;;8.43;;
29314;SDS011;16320;53.954;9.506;2023-01-23T05:04:11;15.20;;;7.72;;
29314;SDS011;16320;53.954;9.506;2023-01-23T05:07:15;16.33;;;8.10;;
29314;SDS011;16320;53.954;9.506;2023-01-23T05:10:20;13.90;;;8.23;;
29314;SDS011;16320;53.954;9.506;2023-01-23T05:13:25;17.30;;;8.43;;
29314;SDS011;16320;53.954;9.506;2023-01-23T05:16:30;14.93;;;8.48;;
29314;SDS011;16320;53.954;9.506;2023-01-23T05:19:34;16.88;;;8.50;;
29314;SDS011;16320;53.954;9.506;2023-01-23T05:22:38;16.92;;;8.63;;
29314;SDS011;16320;53.954;9.506;2023-01-23T05:25:55;17.25;;;7.97;;
29314;SDS011;16320;53.954;9.506;2023-01-23T05:29:00;16.80;;;7.50;;
29314;SDS011;16320;53.954;9.506;2023-01-23T05:32:04;15.00;;;7.75;;
29314;SDS011;16320;53.954;9.506;2023-01-23T05:35:09;20.08;;;9.00;;
29314;SDS011;16320;53.954;9.506;2023-01-23T05:38:14;14.10;;;8.32;;
29314;SDS011;16320;53.954;9.506;2023-01-23T05:41:18;17.33;;;8.95;;
29314;SDS011;16320;53.954;9.506;2023-01-23T05:44:23;15.32;;;7.90;;
29314;SDS011;16320;53.954;9.506;2023-01-23T05:47:27;15.65;;;7.55;;
29314;SDS011;16320;53.954;9.506;2023-01-23T05:50:31;13.68;;;7.78;;
29314;SDS011;16320;53.954;9.506;2023-01-23T05:53:37;11.82;;;7.35;;
29314;SDS011;16320;53.954;9.506;2023-01-23T05:56:41;13.95;;;7.47;;
29314;SDS011;16320;53.954;9.506;2023-01-23T05:59:46;13.68;;;7.72;;
29314;SDS011;16320;53.954;9.506;2023-01-23T06:02:50;16.98;;;7.75;;
29314;SDS011;16320;53.954;9.506;2023-01-23T06:05:54;14.05;;;7.43;;
29314;SDS011;16320;53.954;9.506;2023-01-23T06:08:58;14.25;;;7.70;;
29314;SDS011;16320;53.954;9.506;2023-01-23T06:12:05;14.82;;;8.10;;
29314;SDS011;16320;53.954;9.506;2023-01-23T06:15:11;17.20;;;9.02;;
29314;SDS011;16320;53.954;9.506;2023-01-23T06:18:16;15.15;;;8.68;;
29314;SDS011;16320;53.954;9.506;2023-01-23T06:21:20;20.00;;;7.97;;
29314;SDS011;16320;53.954;9.506;2023-01-23T06:24:24;15.10;;;7.72;;
29314;SDS011;16320;53.954;9.506;2023-01-23T06:27:29;16.80;;;7.47;;
29314;SDS011;16320;53.954;9.506;2023-01-23T06:30:33;15.82;;;7.97;;
29314;SDS011;16320;53.954;9.506;2023-01-23T06:33:37;15.38;;;8.52;;
29314;SDS011;16320;53.954;9.506;2023-01-23T06:36:42;15.98;;;8.13;;
29314;SDS011;16320;53.954;9.506;2023-01-23T06:39:46;18.95;;;8.95;;
29314;SDS011;16320;53.954;9.506;2023-01-23T06:42:54;16.75;;;8.60;;
29314;SDS011;16320;53.954;9.506;2023-01-23T06:45:59;11.40;;;7.80;;
29314;SDS011;16320;53.954;9.506;2023-01-23T06:49:04;14.13;;;8.00;;
29314;SDS011;16320;53.954;9.506;2023-01-23T06:52:09;16.30;;;8.20;;
29314;SDS011;16320;53.954;9.506;2023-01-23T06:55:13;14.32;;;7.50;;
29314;SDS011;16320;53.954;9.506;2023-01-23T06:58:18;17.83;;;8.55;;
29314;SDS011;16320;53.954;9.506;2023-01-23T07:01:23;14.30;;;8.10;;
29314;SDS011;16320;53.954;9.506;2023-01-23T07:04:29;18.55;;;8.32;;
29314;SDS011;16320;53.954;9.506;2023-01-23T07:07:33;14.45;;;8.27;;
29314;SDS011;16320;53.954;9.506;2023-01-23T07:10:41;13.57;;;8.45;;
29314;SDS011;16320;53.954;9.506;2023-01-23T07:13:46;14.00;;;7.80;;
29314;SDS011;16320;53.954;9.506;2023-01-23T07:16:50;14.73;;;8.80;;
29314;SDS011;16320;53.954;9.506;2023-01-23T07:19:54;14.35;;;8.18;;
29314;SDS011;16320;53.954;9.506;2023-01-23T07:22:59;18.80;;;8.52;;
29314;SDS011;16320;53.954;9.506;2023-01-23T07:26:05;15.35;;;8.30;;
29314;SDS011;16320;53.954;9.506;2023-01-23T07:29:12;14.70;;;8.57;;
29314;SDS011;16320;53.954;9.506;2023-01-23T07:32:17;15.57;;;7.88;;
29314;SDS011;16320;53.954;9.506;2023-01-23T07:35:22;14.82;;;8.55;;
29314;SDS011;16320;53.954;9.506;2023-01-23T07:38:26;16.63;;;7.80;;
29314;SDS011;16320;53.954;9.506;2023-01-23T07:41:30;14.95;;;8.35;;
29314;SDS011;16320;53.954;9.506;2023-01-23T07:44:35;16.63;;;9.23;;
29314;SDS011;16320;53.954;9.506;2023-01-23T07:47:39;14.05;;;8.75;;
29314;SDS011;16320;53.954;9.506;2023-01-23T07:50:45;15.27;;;8.68;;
29314;SDS011;16320;53.954;9.506;2023-01-23T07:53:55;18.73;;;9.57;;
29314;SDS011;16320;53.954;9.506;2023-01-23T07:57:00;24.58;;;9.80;;
29314;SDS011;16320;53.954;9.506;2023-01-23T08:03:51;17.92;;;9.20;;
29314;SDS011;16320;53.954;9.506;2023-01-23T08:06:56;19.45;;;10.13;;
29314;SDS011;16320;53.954;9.506;2023-01-23T08:10:01;17.33;;;9.38;;
29314;SDS011;16320;53.954;9.506;2023-01-23T08:13:07;18.80;;;9.90;;
29314;SDS011;16320;53.954;9.506;2023-01-23T08:16:12;15.20;;;9.68;;
29314;SDS011;16320;53.954;9.506;2023-01-23T08:19:17;18.00;;;9.93;;
29314;SDS011;16320;53.954;9.506;2023-01-23T08:22:22;17.00;;;9.13;;
29314;SDS011;16320;53.954;9.506;2023-01-23T08:25:26;17.42;;;9.48;;
29314;SDS011;16320;53.954;9.506;2023-01-23T08:28:30;16.90;;;9.35;;
29314;SDS011;16320;53.954;9.506;2023-01-23T08:31:36;21.52;;;10.60;;
29314;SDS011;16320;53.954;9.506;2023-01-23T08:34:42;15.63;;;10.07;;
29314;SDS011;16320;53.954;9.506;2023-01-23T08:37:48;19.45;;;10.43;;
29314;SDS011;16320;53.954;9.506;2023-01-23T08:40:52;15.30;;;8.60;;
29314;SDS011;16320;53.954;9.506;2023-01-23T08:44:01;20.08;;;10.60;;
29314;SDS011;16320;53.954;9.506;2023-01-23T08:47:06;17.60;;;10.27;;
29314;SDS011;16320;53.954;9.506;2023-01-23T08:50:11;19.42;;;10.15;;
29314;SDS011;16320;53.954;9.506;2023-01-23T08:53:15;18.58;;;10.82;;
29314;SDS011;16320;53.954;9.506;2023-01-23T08:56:21;20.25;;;11.00;;
29314;SDS011;16320;53.954;9.506;2023-01-23T08:59:27;20.63;;;12.38;;
29314;SDS011;16320;53.954;9.506;2023-01-23T09:02:31;23.90;;;12.98;;
29314;SDS011;16320;53.954;9.506;2023-01-23T09:05:35;24.02;;;13.90;;
29314;SDS011;16320;53.954;9.506;2023-01-23T09:08:39;25.65;;;13.88;;
29314;SDS011;16320;53.954;9.506;2023-01-23T09:11:45;21.42;;;11.98;;
29314;SDS011;16320;53.954;9.506;2023-01-23T09:14:49;24.48;;;12.35;;
29314;SDS011;16320;53.954;9.506;2023-01-23T09:17:53;21.08;;;12.23;;
29314;SDS011;16320;53.954;9.506;2023-01-23T09:20:58;20.00;;;11.63;;
29314;SDS011;16320;53.954;9.506;2023-01-23T09:24:04;17.33;;;10.60;;
29314;SDS011;16320;53.954;9.506;2023-01-23T09:27:10;17.70;;;9.85;;
29314;SDS011;16320;53.954;9.506;2023-01-23T09:30:15;20.63;;;11.20;;
29314;SDS011;16320;53.954;9.506;2023-01-23T09:33:20;16.58;;;10.32;;
29314;SDS011;16320;53.954;9.506;2023-01-23T09:36:30;23.40;;;10.77;;
29314;SDS011;16320;53.954;9.506;2023-01-23T09:39:45;14.15;;;9.38;;
29314;SDS011;16320;53.954;9.506;2023-01-23T09:42:50;20.92;;;10.18;;
29314;SDS011;16320;53.954;9.506;2023-01-23T09:52:48;19.88;;;10.52;;
29314;SDS011;16320;53.954;9.506;2023-01-23T09:55:58;18.35;;;11.10;;
29314;SDS011;16320;53.954;9.506;2023-01-23T09:59:28;18.52;;;9.93;;
29314;SDS011;16320;53.954;9.506;2023-01-23T10:02:57;19.33;;;10.35;;
29314;SDS011;16320;53.954;9.506;2023-01-23T10:13:14;17.08;;;10.02;;
29314;SDS011;16320;53.954;9.506;2023-01-23T10:17:06;19.02;;;10.77;;
29314;SDS011;16320;53.954;9.506;2023-01-23T10:20:42;20.55;;;10.00;;
29314;SDS011;16320;53.954;9.506;2023-01-23T10:27:41;17.98;;;10.10;;
29314;SDS011;16320;53.954;9.506;2023-01-23T10:30:51;19.17;;;9.82;;
29314;SDS011;16320;53.954;9.506;2023-01-23T10:37:14;14.48;;;9.50;;
29314;SDS011;16320;53.954;9.506;2023-01-23T10:40:46;15.25;;;8.45;;
29314;SDS011;16320;53.954;9.506;2023-01-23T10:44:14;19.15;;;9.18;;
29314;SDS011;16320;53.954;9.506;2023-01-23T10:47:33;17.45;;;10.05;;
29314;SDS011;16320;53.954;9.506;2023-01-23T10:50:45;14.82;;;8.77;;
29314;SDS011;16320;53.954;9.506;2023-01-23T10:57:37;16.38;;;9.35;;
29314;SDS011;16320;53.954;9.506;2023-01-23T11:00:51;14.88;;;8.35;;
29314;SDS011;16320;53.954;9.506;2023-01-23T11:03:56;13.98;;;9.45;;
29314;SDS011;16320;53.954;9.506;2023-01-23T11:07:16;14.80;;;8.77;;
29314;SDS011;16320;53.954;9.506;2023-01-23T11:10:27;14.82;;;9.20;;
29314;SDS011;16320;53.954;9.506;2023-01-23T11:13:32;16.13;;;9.30;;
29314;SDS011;16320;53.954;9.506;2023-01-23T11:16:36;14.15;;;9.18;;
29314;SDS011;16320;53.954;9.506;2023-01-23T11:19:41;13.32;;;8.50;;
29314;SDS011;16320;53.954;9.506;2023-01-23T11:22:48;17.27;;;8.80;;
29314;SDS011;16320;53.954;9.506;2023-01-23T11:26:32;13.38;;;7.97;;
29314;SDS011;16320;53.954;9.506;2023-01-23T11:40:33;15.15;;;8.15;;
29314;SDS011;16320;53.954;9.506;2023-01-23T11:43:39;15.50;;;8.48;;
29314;SDS011;16320;53.954;9.506;2023-01-23T12:00:20;14.65;;;7.68;;
29314;SDS011;16320;53.954;9.506;2023-01-23T12:07:25;12.07;;;8.02;;
29314;SDS011;16320;53.954;9.506;2023-01-23T12:46:26;28.92;;;17.48;;
29314;SDS011;16320;53.954;9.506;2023-01-23T12:49:47;17.13;;;9.45;;
29314;SDS011;16320;53.954;9.506;2023-01-23T12:53:00;13.80;;;7.70;;
29314;SDS011;16320;53.954;9.506;2023-01-23T13:03:06;16.23;;;8.95;;
29314;SDS011;16320;53.954;9.506;2023-01-23T13:06:51;17.33;;;9.23;;
29314;SDS011;16320;53.954;9.506;2023-01-23T13:10:28;17.75;;;9.73;;
29314;SDS011;16320;53.954;9.506;2023-01-23T13:21:00;16.33;;;9.27;;
29314;SDS011;16320;53.954;9.506;2023-01-23T13:24:29;19.55;;;9.73;;
29314;SDS011;16320;53.954;9.506;2023-01-23T13:28:32;22.08;;;10.23;;
29314;SDS011;16320;53.954;9.506;2023-01-23T13:31:48;18.65;;;9.90;;
29314;SDS011;16320;53.954;9.506;2023-01-23T13:34:55;22.02;;;10.85;;
29314;SDS011;16320;53.954;9.506;2023-01-23T13:38:00;19.40;;;10.45;;
29314;SDS011;16320;53.954;9.506;2023-01-23T13:51:57;15.32;;;9.52;;
29314;SDS011;16320;53.954;9.506;2023-01-23T13:55:21;19.33;;;10.55;;
29314;SDS011;16320;53.954;9.506;2023-01-23T13:59:15;24.88;;;11.40;;
29314;SDS011;16320;53.954;9.506;2023-01-23T14:06:51;18.77;;;11.98;;
29314;SDS011;16320;53.954;9.506;2023-01-23T14:10:12;16.65;;;10.00;;
29314;SDS011;16320;53.954;9.506;2023-01-23T14:13:38;22.60;;;11.07;;
29314;SDS011;16320;53.954;9.506;2023-01-23T14:17:30;18.15;;;9.63;;
29314;SDS011;16320;53.954;9.506;2023-01-23T14:20:49;21.50;;;10.93;;
29314;SDS011;16320;53.954;9.506;2023-01-23T14:24:22;18.60;;;11.15;;
29314;SDS011;16320;53.954;9.506;2023-01-23T14:27:46;22.98;;;11.15;;
29314;SDS011;16320;53.954;9.506;2023-01-23T14:31:01;18.17;;;10.73;;
29314;SDS011;16320;53.954;9.506;2023-01-23T14:34:15;23.27;;;10.88;;
29314;SDS011;16320;53.954;9.506;2023-01-23T14:37:26;21.15;;;11.02;;
29314;SDS011;16320;53.954;9.506;2023-01-23T14:40:33;23.58;;;10.93;;
29314;SDS011;16320;53.954;9.506;2023-01-23T14:43:53;18.00;;;10.20;;
29314;SDS011;16320;53.954;9.506;2023-01-23T14:47:00;20.83;;;10.13;;
29314;SDS011;16320;53.954;9.506;2023-01-23T14:50:08;29.85;;;9.95;;
29314;SDS011;16320;53.954;9.506;2023-01-23T14:53:19;19.30;;;10.93;;
29314;SDS011;16320;53.954;9.506;2023-01-23T14:56:25;17.67;;;11.38;;
29314;SDS011;16320;53.954;9.506;2023-01-23T14:59:41;19.20;;;10.95;;
29314;SDS011;16320;53.954;9.506;2023-01-23T15:02:47;17.85;;;10.35;;
29314;SDS011;16320;53.954;9.506;2023-01-23T15:05:57;17.92;;;10.82;;
29314;SDS011;16320;53.954;9.506;2023-01-23T15:09:23;20.65;;;10.93;;
29314;SDS011;16320;53.954;9.506;2023-01-23T15:12:35;19.50;;;11.45;;
29314;SDS011;16320;53.954;9.506;2023-01-23T15:15:43;21.52;;;11.57;;
29314;SDS011;16320;53.954;9.506;2023-01-23T15:18:59;20.73;;;11.93;;
29314;SDS011;16320;53.954;9.506;2023-01-23T15:22:18;17.95;;;10.38;;
29314;SDS011;16320;53.954;9.506;2023-01-23T15:25:29;21.02;;;12.70;;
29314;SDS011;16320;53.954;9.506;2023-01-23T15:28:37;27.40;;;13.02;;
29314;SDS011;16320;53.954;9.506;2023-01-23T15:31:43;22.75;;;12.07;;
29314;SDS011;16320;53.954;9.506;2023-01-23T15:34:54;20.42;;;11.15;;
29314;SDS011;16320;53.954;9.506;2023-01-23T15:38:03;19.23;;;11.40;;
29314;SDS011;16320;53.954;9.506;2023-01-23T15:41:11;19.55;;;11.93;;
29314;SDS011;16320;53.954;9.506;2023-01-23T15:44:20;19.58;;;11.27;;
29314;SDS011;16320;53.954;9.506;2023-01-23T15:47:29;18.58;;;10.98;;
29314;SDS011;16320;53.954;9.506;2023-01-23T15:50:34;19.58;;;12.40;;
29314;SDS011;16320;53.954;9.506;2023-01-23T15:53:39;21.83;;;11.68;;
29314;SDS011;16320;53.954;9.506;2023-01-23T15:56:43;26.35;;;12.52;;
29314;SDS011;16320;53.954;9.506;2023-01-23T15:59:55;22.30;;;13.10;;
29314;SDS011;16320;53.954;9.506;2023-01-23T16:03:04;19.65;;;11.25;;
29314;SDS011;16320;53.954;9.506;2023-01-23T16:06:14;21.75;;;13.20;;
29314;SDS011;16320;53.954;9.506;2023-01-23T16:09:27;19.23;;;11.68;;
29314;SDS011;16320;53.954;9.506;2023-01-23T16:12:35;20.83;;;12.18;;
29314;SDS011;16320;53.954;9.506;2023-01-23T16:15:41;26.00;;;13.27;;
29314;SDS011;16320;53.954;9.506;2023-01-23T16:18:46;26.02;;;14.38;;
29314;SDS011;16320;53.954;9.506;2023-01-23T16:21:51;24.30;;;15.18;;
29314;SDS011;16320;53.954;9.506;2023-01-23T16:25:16;20.15;;;13.40;;
29314;SDS011;16320;53.954;9.506;2023-01-23T16:28:45;24.17;;;14.25;;
29314;SDS011;16320;53.954;9.506;2023-01-23T16:31:50;24.63;;;14.68;;
29314;SDS011;16320;53.954;9.506;2023-01-23T16:34:56;24.95;;;14.98;;
29314;SDS011;16320;53.954;9.506;2023-01-23T16:38:01;26.52;;;13.13;;
29314;SDS011;16320;53.954;9.506;2023-01-23T16:41:07;25.45;;;13.90;;
29314;SDS011;16320;53.954;9.506;2023-01-23T16:44:13;23.90;;;14.23;;
29314;SDS011;16320;53.954;9.506;2023-01-23T16:47:20;23.02;;;13.63;;
29314;SDS011;16320;53.954;9.506;2023-01-23T16:50:30;27.90;;;14.50;;
29314;SDS011;16320;53.954;9.506;2023-01-23T16:53:39;24.10;;;14.77;;
29314;SDS011;16320;53.954;9.506;2023-01-23T16:56:47;24.15;;;14.60;;
29314;SDS011;16320;53.954;9.506;2023-01-23T16:59:54;25.08;;;13.98;;
29314;SDS011;16320;53.954;9.506;2023-01-23T17:02:59;24.58;;;13.18;;
29314;SDS011;16320;53.954;9.506;2023-01-23T17:06:11;22.27;;;14.23;;
29314;SDS011;16320;53.954;9.506;2023-01-23T17:09:18;23.13;;;13.45;;
29314;SDS011;16320;53.954;9.506;2023-01-23T17:12:24;27.08;;;14.77;;
29314;SDS011;16320;53.954;9.506;2023-01-23T17:15:33;21.17;;;13.05;;
29314;SDS011;16320;53.954;9.506;2023-01-23T17:18:37;21.77;;;12.73;;
29314;SDS011;16320;53.954;9.506;2023-01-23T17:21:43;25.50;;;13.55;;
29314;SDS011;16320;53.954;9.506;2023-01-23T17:24:48;28.85;;;14.50;;
29314;SDS011;16320;53.954;9.506;2023-01-23T17:27:52;25.95;;;14.52;;
29314;SDS011;16320;53.954;9.506;2023-01-23T17:31:16;30.90;;;15.65;;
29314;SDS011;16320;53.954;9.506;2023-01-23T17:34:28;28.02;;;15.35;;
29314;SDS011;16320;53.954;9.506;2023-01-23T17:38:03;28.17;;;15.52;;
29314;SDS011;16320;53.954;9.506;2023-01-23T17:41:13;25.00;;;14.27;;
29314;SDS011;16320;53.954;9.506;2023-01-23T17:44:19;29.70;;;14.32;;
29314;SDS011;16320;53.954;9.506;2023-01-23T17:47:23;28.25;;;14.73;;
29314;SDS011;16320;53.954;9.506;2023-01-23T17:50:28;24.77;;;14.05;;
29314;SDS011;16320;53.954;9.506;2023-01-23T17:53:32;31.98;;;16.02;;
29314;SDS011;16320;53.954;9.506;2023-01-23T17:56:37;27.52;;;14.38;;
29314;SDS011;16320;53.954;9.506;2023-01-23T17:59:41;27.42;;;14.13;;
29314;SDS011;16320;53.954;9.506;2023-01-23T18:02:51;26.23;;;13.20;;
29314;SDS011;16320;53.954;9.506;2023-01-23T18:06:03;26.70;;;13.98;;
29314;SDS011;16320;53.954;9.506;2023-01-23T18:09:08;27.58;;;14.40;;
29314;SDS011;16320;53.954;9.506;2023-01-23T18:12:14;28.13;;;14.35;;
29314;SDS011;16320;53.954;9.506;2023-01-23T18:19:14;32.45;;;15.85;;
29314;SDS011;16320;53.954;9.506;2023-01-23T18:22:24;35.13;;;15.55;;
29314;SDS011;16320;53.954;9.506;2023-01-23T18:25:28;37.95;;;20.73;;
29314;SDS011;16320;53.954;9.506;2023-01-23T18:28:36;29.50;;;15.88;;
29314;SDS011;16320;53.954;9.506;2023-01-23T18:42:52;30.83;;;14.90;;
29314;SDS011;16320;53.954;9.506;2023-01-23T18:46:30;33.38;;;16.52;;
29314;SDS011;16320;53.954;9.506;2023-01-23T18:49:36;34.67;;;17.42;;
29314;SDS011;16320;53.954;9.506;2023-01-23T18:56:09;42.75;;;18.15;;
29314;SDS011;16320;53.954;9.506;2023-01-23T19:03:17;37.45;;;17.20;;
29314;SDS011;16320;53.954;9.506;2023-01-23T19:06:27;45.28;;;19.50;;
29314;SDS011;16320;53.954;9.506;2023-01-23T19:09:37;42.75;;;18.45;;
29314;SDS011;16320;53.954;9.506;2023-01-23T19:16:14;47.95;;;19.90;;
29314;SDS011;16320;53.954;9.506;2023-01-23T19:19:31;42.95;;;18.95;;
29314;SDS011;16320;53.954;9.506;2023-01-23T19:26:29;45.88;;;19.65;;
29314;SDS011;16320;53.954;9.506;2023-01-23T19:29:38;35.57;;;18.97;;
29314;SDS011;16320;53.954;9.506;2023-01-23T19:32:43;45.17;;;20.27;;
29314;SDS011;16320;53.954;9.506;2023-01-23T19:35:48;54.90;;;32.92;;
29314;SDS011;16320;53.954;9.506;2023-01-23T19:38:53;39.17;;;18.73;;
29314;SDS011;16320;53.954;9.506;2023-01-23T19:42:10;41.83;;;19.60;;
29314;SDS011;16320;53.954;9.506;2023-01-23T19:45:17;36.42;;;17.67;;
29314;SDS011;16320;53.954;9.506;2023-01-23T19:48:23;44.92;;;19.92;;
29314;SDS011;16320;53.954;9.506;2023-01-23T19:51:28;92.43;;;38.50;;
29314;SDS011;16320;53.954;9.506;2023-01-23T19:54:34;52.10;;;22.15;;
29314;SDS011;16320;53.954;9.506;2023-01-23T19:57:39;51.75;;;20.00;;
29314;SDS011;16320;53.954;9.506;2023-01-23T20:00:43;44.47;;;18.80;;
29314;SDS011;16320;53.954;9.506;2023-01-23T20:03:48;47.30;;;19.90;;
29314;SDS011;16320;53.954;9.506;2023-01-23T20:06:53;39.53;;;17.17;;
29314;SDS011;16320;53.954;9.506;2023-01-23T20:09:57;50.58;;;20.88;;
29314;SDS011;16320;53.954;9.506;2023-01-23T20:13:01;48.15;;;20.75;;
29314;SDS011;16320;53.954;9.506;2023-01-23T20:16:07;44.72;;;20.35;;
29314;SDS011;16320;53.954;9.506;2023-01-23T20:19:17;52.08;;;20.33;;
29314;SDS011;16320;53.954;9.506;2023-01-23T20:22:22;54.92;;;22.63;;
29314;SDS011;16320;53.954;9.506;2023-01-23T20:25:27;52.22;;;20.92;;
29314;SDS011;16320;53.954;9.506;2023-01-23T20:28:31;49.08;;;20.35;;
29314;SDS011;16320;53.954;9.506;2023-01-23T20:31:36;57.42;;;21.17;;
29314;SDS011;16320;53.954;9.506;2023-01-23T20:34:41;51.88;;;21.55;;
29314;SDS011;16320;53.954;9.506;2023-01-23T20:37:45;48.47;;;21.45;;
29314;SDS011;16320;53.954;9.506;2023-01-23T20:40:51;48.40;;;21.38;;
29314;SDS011;16320;53.954;9.506;2023-01-23T20:43:56;49.17;;;21.45;;
29314;SDS011;16320;53.954;9.506;2023-01-23T20:47:07;55.63;;;21.67;;
29314;SDS011;16320;53.954;9.506;2023-01-23T20:50:11;49.47;;;19.00;;
29314;SDS011;16320;53.954;9.506;2023-01-23T20:53:16;55.83;;;22.73;;
29314;SDS011;16320;53.954;9.506;2023-01-23T20:56:32;48.22;;;20.83;;
29314;SDS011;16320;53.954;9.506;2023-01-23T20:59:36;53.38;;;21.70;;
29314;SDS011;16320;53.954;9.506;2023-01-23T21:02:41;54.78;;;22.52;;
29314;SDS011;16320;53.954;9.506;2023-01-23T21:05:45;55.70;;;22.40;;